createdAt,value
2018-08-09T00:01:43.084Z,22.35
2018-08-09T00:04:12.703Z,22.35
2018-08-09T00:06:42.730Z,22.37
2018-08-09T00:09:13.133Z,22.32
2018-08-09T00:11:42.873Z,22.20
2018-08-09T00:14:13.022Z,22.14
2018-08-09T00:16:42.887Z,22.08
2018-08-09T00:19:12.510Z,22.03
2018-08-09T00:21:42.942Z,22.06
2018-08-09T00:24:12.658Z,22.11
2018-08-09T00:26:42.890Z,22.18
2018-08-09T00:29:12.472Z,22.25
2018-08-09T00:31:42.919Z,22.30
2018-08-09T00:34:12.623Z,22.32
2018-08-09T00:36:43.024Z,22.35
2018-08-09T00:39:13.751Z,22.38
2018-08-09T00:41:44.278Z,22.39
2018-08-09T00:44:13.736Z,22.43
2018-08-09T00:46:43.605Z,22.41
2018-08-09T00:49:13.379Z,22.41
2018-08-09T00:51:43.685Z,22.35
2018-08-09T00:54:13.153Z,22.26
2018-08-09T00:56:43.024Z,22.22
2018-08-09T00:59:12.796Z,22.23
2018-08-09T01:01:43.125Z,22.24
2018-08-09T01:04:12.822Z,22.22
2018-08-09T01:06:42.900Z,22.26
2018-08-09T01:09:15.324Z,22.20
2018-08-09T01:11:45.554Z,22.11
2018-08-09T01:14:15.194Z,22.00
2018-08-09T01:16:44.881Z,21.96
2018-08-09T01:19:14.491Z,22.01
2018-08-09T01:21:44.291Z,22.03
2018-08-09T01:24:13.851Z,22.01
2018-08-09T01:26:43.552Z,21.91
2018-08-09T01:29:13.082Z,21.90
2018-08-09T01:31:43.017Z,21.83
2018-08-09T01:34:12.595Z,21.76
2018-08-09T01:36:43.618Z,21.70
2018-08-09T01:39:14.015Z,21.65
2018-08-09T01:43:01.571Z,21.70
2018-08-09T01:45:31.070Z,21.79
2018-08-09T01:48:01.014Z,21.86
2018-08-09T01:50:31.044Z,21.91
2018-08-09T01:53:00.804Z,21.89
2018-08-09T01:55:30.653Z,21.87
2018-08-09T01:58:00.864Z,21.85
2018-08-09T02:00:30.300Z,21.89
2018-08-09T02:03:00.041Z,21.92
2018-08-09T02:05:29.812Z,21.63
2018-08-09T02:07:59.542Z,21.52
2018-08-09T02:10:29.354Z,21.46
2018-08-09T02:12:58.931Z,21.49
2018-08-09T02:15:28.410Z,21.58
2018-08-09T02:17:57.915Z,21.67
2018-08-09T02:20:27.417Z,21.75
2018-08-09T02:22:57.216Z,21.79
2018-08-09T02:25:27.287Z,21.68
2018-08-09T02:28:00.652Z,21.52
2018-08-09T02:30:30.397Z,21.44
2018-08-09T02:33:00.159Z,21.45
2018-08-09T02:35:29.809Z,21.52
2018-08-09T02:37:59.631Z,21.61
2018-08-09T02:40:29.289Z,21.61
2018-08-09T02:42:59.129Z,21.45
2018-08-09T02:45:28.802Z,21.33
2018-08-09T02:47:58.779Z,21.23
2018-08-09T02:50:28.296Z,21.23
2018-08-09T02:52:58.076Z,21.33
2018-08-09T02:55:28.259Z,21.41
2018-08-09T02:57:58.151Z,21.47
2018-08-09T03:00:27.689Z,21.51
2018-08-09T03:02:57.474Z,21.53
2018-08-09T03:05:27.169Z,21.56
2018-08-09T03:07:57.294Z,21.58
2018-08-09T03:10:27.022Z,21.56
2018-08-09T03:12:56.506Z,21.53
2018-08-09T03:15:26.158Z,21.49
2018-08-09T03:17:55.964Z,21.47
2018-08-09T03:20:25.453Z,21.46
2018-08-09T03:22:55.146Z,21.44
2018-08-09T03:25:24.921Z,21.44
2018-08-09T03:27:54.561Z,21.45
2018-08-09T03:30:24.672Z,21.48
2018-08-09T03:32:54.175Z,21.50
2018-08-09T03:35:24.069Z,21.47
2018-08-09T03:37:53.835Z,21.46
2018-08-09T03:40:23.479Z,21.46
2018-08-09T03:42:53.313Z,21.38
2018-08-09T03:45:22.758Z,21.32
2018-08-09T03:47:52.493Z,21.18
2018-08-09T03:50:22.211Z,21.09
2018-08-09T03:52:52.059Z,20.90
2018-08-09T03:55:21.833Z,20.72
2018-08-09T03:57:51.518Z,20.62
2018-08-09T04:00:21.296Z,20.64
2018-08-09T04:02:51.202Z,20.68
2018-08-09T04:05:21.210Z,20.68
2018-08-09T04:07:51.010Z,20.70
2018-08-09T04:10:20.744Z,20.75
2018-08-09T04:12:50.622Z,20.78
2018-08-09T04:15:20.812Z,20.74
2018-08-09T04:17:50.943Z,20.72
2018-08-09T04:20:20.664Z,20.64
2018-08-09T04:22:50.492Z,20.41
2018-08-09T04:25:19.946Z,20.36
2018-08-09T04:27:49.832Z,20.36
2018-08-09T04:30:19.461Z,20.33
2018-08-09T04:32:49.668Z,20.34
2018-08-09T04:35:19.398Z,20.43
2018-08-09T04:37:50.062Z,20.48
2018-08-09T04:40:19.695Z,20.50
2018-08-09T04:42:49.671Z,20.49
2018-08-09T04:45:19.544Z,20.47
2018-08-09T04:47:49.285Z,20.41
2018-08-09T04:50:18.859Z,20.39
2018-08-09T04:52:48.988Z,20.39
2018-08-09T04:55:18.743Z,20.34
2018-08-09T04:57:48.548Z,20.33
2018-08-09T05:00:18.157Z,20.33
2018-08-09T05:02:47.974Z,20.39
2018-08-09T05:05:17.795Z,20.44
2018-08-09T05:07:47.520Z,20.53
2018-08-09T05:10:17.316Z,20.61
2018-08-09T05:12:47.733Z,20.60
2018-08-09T05:15:17.802Z,20.65
2018-08-09T05:17:47.726Z,20.72
2018-08-09T05:20:17.609Z,20.67
2018-08-09T05:22:47.336Z,20.71
2018-08-09T05:25:17.125Z,20.71
2018-08-09T05:27:46.982Z,20.71
2018-08-09T05:30:16.720Z,20.77
2018-08-09T05:32:46.749Z,20.85
2018-08-09T05:35:16.531Z,20.83
2018-08-09T05:37:46.002Z,20.82
2018-08-09T05:40:15.779Z,20.82
2018-08-09T05:42:45.647Z,20.80
2018-08-09T05:45:15.343Z,20.64
2018-08-09T05:47:44.965Z,20.71
2018-08-09T05:50:14.998Z,20.81
2018-08-09T05:52:44.887Z,20.85
2018-08-09T05:55:14.856Z,20.91
2018-08-09T05:57:44.607Z,20.96
2018-08-09T06:00:14.538Z,20.95
2018-08-09T06:02:45.123Z,20.97
2018-08-09T06:05:15.091Z,20.95
2018-08-09T06:07:44.825Z,20.97
2018-08-09T06:10:14.787Z,20.99
2018-08-09T06:12:44.442Z,20.96
2018-08-09T06:15:14.410Z,20.91
2018-08-09T06:17:44.239Z,20.95
2018-08-09T06:20:14.133Z,21.01
2018-08-09T06:22:44.089Z,21.03
2018-08-09T06:25:14.065Z,20.97
2018-08-09T06:27:44.630Z,21.00
2018-08-09T06:30:14.415Z,20.95
2018-08-09T06:32:44.295Z,20.92
2018-08-09T06:35:13.833Z,21.00
2018-08-09T06:37:43.861Z,21.05
2018-08-09T06:40:15.020Z,21.07
2018-08-09T06:42:45.384Z,21.09
2018-08-09T06:45:15.745Z,21.17
2018-08-09T06:47:45.641Z,21.26
2018-08-09T06:50:15.627Z,21.29
2018-08-09T06:52:45.634Z,21.33
2018-08-09T06:55:16.019Z,21.37
2018-08-09T06:57:46.263Z,21.38
2018-08-09T07:00:16.446Z,21.44
2018-08-09T07:02:46.054Z,21.48
2018-08-09T07:05:15.980Z,21.50
2018-08-09T07:07:45.986Z,21.47
2018-08-09T07:10:16.024Z,21.53
2018-08-09T07:12:45.830Z,21.56
2018-08-09T07:15:15.875Z,21.54
2018-08-09T07:17:45.594Z,21.59
2018-08-09T07:20:15.338Z,21.65
2018-08-09T07:22:45.390Z,21.66
2018-08-09T07:25:15.404Z,21.73
2018-08-09T07:27:45.667Z,21.76
2018-08-09T07:30:15.514Z,21.80
2018-08-09T07:32:45.657Z,21.80
2018-08-09T07:35:15.341Z,21.83
2018-08-09T07:37:45.164Z,21.78
2018-08-09T07:40:15.238Z,21.73
2018-08-09T07:42:45.304Z,21.74
2018-08-09T07:45:15.668Z,21.72
2018-08-09T07:47:45.769Z,21.71
2018-08-09T07:50:15.821Z,21.66
2018-08-09T07:52:45.872Z,21.62
2018-08-09T07:55:15.420Z,21.69
2018-08-09T07:57:45.272Z,21.89
2018-08-09T08:00:15.198Z,22.11
2018-08-09T08:02:45.034Z,22.22
2018-08-09T08:05:14.875Z,22.30
2018-08-09T08:07:45.264Z,22.32
2018-08-09T08:10:15.375Z,22.22
2018-08-09T08:12:48.455Z,22.15
2018-08-09T08:15:18.310Z,22.15
2018-08-09T08:17:48.512Z,22.23
2018-08-09T08:20:18.058Z,22.35
2018-08-09T08:22:48.419Z,22.54
2018-08-09T08:25:18.692Z,22.69
2018-08-09T08:27:48.999Z,22.78
2018-08-09T08:30:18.662Z,22.88
2018-08-09T08:32:48.417Z,22.87
2018-08-09T08:35:18.078Z,22.75
2018-08-09T08:37:48.322Z,22.72
2018-08-09T08:40:18.438Z,22.70
2018-08-09T08:42:48.469Z,22.70
2018-08-09T08:45:19.158Z,22.74
2018-08-09T08:47:49.091Z,22.69
2018-08-09T08:50:18.940Z,22.77
2018-08-09T08:52:49.152Z,22.76
2018-08-09T08:55:19.296Z,22.75
2018-08-09T08:57:49.430Z,23.05
2018-08-09T09:00:19.597Z,23.44
2018-08-09T09:02:49.186Z,23.89
2018-08-09T09:05:18.993Z,24.33
2018-08-09T09:07:48.797Z,24.68
2018-08-09T09:10:18.301Z,24.93
2018-08-09T09:12:47.876Z,24.99
2018-08-09T09:15:17.682Z,25.06
2018-08-09T09:17:47.847Z,25.18
2018-08-09T09:20:18.155Z,25.24
2018-08-09T09:22:48.268Z,25.14
2018-08-09T09:25:18.037Z,25.14
2018-08-09T09:27:48.155Z,25.29
2018-08-09T09:30:18.819Z,25.57
2018-08-09T09:32:48.410Z,25.98
2018-08-09T09:35:18.188Z,26.23
2018-08-09T09:37:48.012Z,26.43
2018-08-09T09:40:17.941Z,26.57
2018-08-09T09:42:47.700Z,26.70
2018-08-09T09:45:17.813Z,26.75
2018-08-09T09:47:47.588Z,26.91
2018-08-09T09:50:17.647Z,26.98
2018-08-09T09:52:47.551Z,27.12
2018-08-09T09:55:17.802Z,27.25
2018-08-09T09:57:47.895Z,27.33
2018-08-09T10:00:23.089Z,27.52
2018-08-09T10:02:52.822Z,27.79
2018-08-09T10:05:22.354Z,27.97
2018-08-09T10:07:52.357Z,28.16
2018-08-09T10:10:22.192Z,28.28
2018-08-09T10:12:52.510Z,28.19
2018-08-09T10:15:22.597Z,28.12
2018-08-09T10:17:52.882Z,28.10
2018-08-09T10:20:23.058Z,27.95
2018-08-09T10:22:52.798Z,27.83
2018-08-09T10:25:22.937Z,27.99
2018-08-09T10:27:52.571Z,28.22
2018-08-09T10:30:22.505Z,28.43
2018-08-09T10:32:52.267Z,28.44
2018-08-09T10:35:21.981Z,28.25
2018-08-09T10:37:51.899Z,27.95
2018-08-09T10:40:21.777Z,28.00
2018-08-09T10:42:51.569Z,28.03
2018-08-09T10:45:21.099Z,28.09
2018-08-09T10:47:51.521Z,28.28
2018-08-09T10:50:21.634Z,28.46
2018-08-09T10:52:51.561Z,28.65
2018-08-09T10:55:21.507Z,28.84
2018-08-09T10:57:50.998Z,28.87
2018-08-09T11:00:20.559Z,28.76
2018-08-09T11:02:50.558Z,28.66
2018-08-09T11:05:21.027Z,28.75
2018-08-09T11:07:51.096Z,28.68
2018-08-09T11:10:20.925Z,28.50
2018-08-09T11:12:50.481Z,28.43
2018-08-09T11:15:20.435Z,28.48
2018-08-09T11:17:50.664Z,28.59
2018-08-09T11:20:20.724Z,28.41
2018-08-09T11:22:50.695Z,28.11
2018-08-09T11:25:20.794Z,28.17
2018-08-09T11:27:50.393Z,28.43
2018-08-09T11:30:20.217Z,28.55
2018-08-09T11:32:50.252Z,28.52
2018-08-09T11:35:19.908Z,28.58
2018-08-09T11:37:49.662Z,28.69
2018-08-09T11:40:19.164Z,28.83
2018-08-09T11:42:48.748Z,28.92
2018-08-09T11:45:18.825Z,28.97
2018-08-09T11:47:48.814Z,29.14
2018-08-09T11:50:18.735Z,29.11
2018-08-09T11:52:48.380Z,29.16
2018-08-09T11:55:18.270Z,29.23
2018-08-09T11:57:48.027Z,29.26
2018-08-09T12:00:18.060Z,29.33
2018-08-09T12:02:48.238Z,29.34
2018-08-09T12:05:18.046Z,29.33
2018-08-09T12:07:48.109Z,29.40
2018-08-09T12:10:17.871Z,29.50
2018-08-09T12:12:47.592Z,29.61
2018-08-09T12:15:17.915Z,29.67
2018-08-09T12:17:47.906Z,29.59
2018-08-09T12:20:17.717Z,29.61
2018-08-09T12:22:48.504Z,29.72
2018-08-09T12:25:18.387Z,29.70
2018-08-09T12:27:48.123Z,29.78
2018-08-09T12:30:17.773Z,29.73
2018-08-09T12:32:47.773Z,29.71
2018-08-09T12:35:18.151Z,29.71
2018-08-09T12:37:47.975Z,29.68
2018-08-09T12:40:18.421Z,29.64
2018-08-09T12:42:48.231Z,29.63
2018-08-09T12:45:17.796Z,29.49
2018-08-09T12:47:47.804Z,29.49
2018-08-09T12:50:17.716Z,29.42
2018-08-09T12:53:02.669Z,29.43
2018-08-09T12:55:33.047Z,29.47
2018-08-09T12:58:03.245Z,29.51
2018-08-09T13:00:32.850Z,29.54
2018-08-09T13:03:03.203Z,29.61
2018-08-09T13:05:32.974Z,29.65
2018-08-09T13:08:03.437Z,29.68
2018-08-09T13:10:32.982Z,29.70
2018-08-09T13:13:02.999Z,29.72
2018-08-09T13:15:32.890Z,29.78
2018-08-09T13:18:03.270Z,29.85
2018-08-09T13:20:33.377Z,29.93
2018-08-09T13:23:03.273Z,30.07
2018-08-09T13:25:32.809Z,30.19
2018-08-09T13:28:02.857Z,30.20
2018-08-09T13:30:32.537Z,30.29
2018-08-09T13:33:02.467Z,30.30
2018-08-09T13:35:32.380Z,30.30
2018-08-09T13:38:02.605Z,30.33
2018-08-09T13:40:32.576Z,30.28
2018-08-09T13:43:02.210Z,30.22
2018-08-09T13:45:32.320Z,30.21
2018-08-09T13:48:02.483Z,30.09
2018-08-09T13:50:32.674Z,29.80
2018-08-09T13:53:02.518Z,29.40
2018-08-09T13:55:32.110Z,28.56
2018-08-09T13:58:02.026Z,27.48
2018-08-09T14:00:32.168Z,26.63
2018-08-09T14:03:01.902Z,26.18
2018-08-09T14:05:32.193Z,25.85
2018-08-09T14:08:02.010Z,25.40
2018-08-09T14:10:32.622Z,25.21
2018-08-09T14:13:02.878Z,25.06
2018-08-09T14:15:32.359Z,24.83
2018-08-09T14:18:02.270Z,24.69
2018-08-09T14:20:32.281Z,24.49
2018-08-09T14:23:03.147Z,24.35
2018-08-09T14:25:32.721Z,24.13
2018-08-09T14:28:03.030Z,24.07
2018-08-09T14:30:32.867Z,24.01
2018-08-09T14:33:02.761Z,23.99
2018-08-09T14:35:32.454Z,24.00
2018-08-09T14:38:02.594Z,23.92
2018-08-09T14:40:32.496Z,23.88
2018-08-09T14:43:02.679Z,23.91
2018-08-09T14:45:32.589Z,23.84
2018-08-09T14:48:02.365Z,23.80
2018-08-09T14:50:32.394Z,23.77
2018-08-09T14:53:02.150Z,23.67
2018-08-09T14:55:31.585Z,23.66
2018-08-09T14:58:01.563Z,23.57
2018-08-09T15:00:31.194Z,23.45
2018-08-09T15:03:01.498Z,23.37
2018-08-09T15:05:31.292Z,23.39
2018-08-09T15:08:01.060Z,23.38
2018-08-09T15:10:30.711Z,23.32
2018-08-09T15:13:00.426Z,23.14
2018-08-09T15:15:30.420Z,23.16
2018-08-09T15:18:00.133Z,23.27
2018-08-09T15:20:29.594Z,23.30
2018-08-09T15:23:00.216Z,23.23
2018-08-09T15:25:30.222Z,23.19
2018-08-09T15:28:00.107Z,23.21
2018-08-09T15:30:29.663Z,23.29
2018-08-09T15:32:59.536Z,23.41
2018-08-09T15:35:29.500Z,23.50
2018-08-09T15:37:59.323Z,23.54
2018-08-09T15:40:29.477Z,23.56
2018-08-09T15:42:59.204Z,23.68
2018-08-09T15:45:28.850Z,23.81
2018-08-09T15:47:58.813Z,23.90
2018-08-09T15:50:29.089Z,23.91
2018-08-09T15:52:59.200Z,23.97
2018-08-09T15:55:28.847Z,24.04
2018-08-09T15:57:58.850Z,24.07
2018-08-09T16:00:28.323Z,24.02
2018-08-09T16:02:58.602Z,24.12
2018-08-09T16:05:28.514Z,24.09
2018-08-09T16:07:58.468Z,24.11
2018-08-09T16:10:29.837Z,24.04
2018-08-09T16:12:59.862Z,24.11
2018-08-09T16:15:29.701Z,24.11
2018-08-09T16:17:59.667Z,24.09
2018-08-09T16:20:29.466Z,24.18
2018-08-09T16:22:59.277Z,24.12
2018-08-09T16:25:29.243Z,24.10
2018-08-09T16:27:58.977Z,24.20
2018-08-09T16:30:29.222Z,24.11
2018-08-09T16:32:59.093Z,24.14
2018-08-09T16:35:28.653Z,24.18
2018-08-09T16:37:58.807Z,24.28
2018-08-09T16:40:28.632Z,24.29
2018-08-09T16:42:58.252Z,24.38
2018-08-09T16:45:27.804Z,24.34
2018-08-09T16:47:57.452Z,24.20
2018-08-09T16:50:27.349Z,24.28
2018-08-09T16:52:57.157Z,24.26
2018-08-09T16:55:27.331Z,24.23
2018-08-09T16:57:57.546Z,24.29
2018-08-09T17:00:27.664Z,24.29
2018-08-09T17:02:57.588Z,24.36
2018-08-09T17:05:28.225Z,24.33
2018-08-09T17:07:58.418Z,24.33
2018-08-09T17:10:27.914Z,24.36
2018-08-09T17:12:57.783Z,24.37
2018-08-09T17:15:28.938Z,24.37
2018-08-09T17:17:59.845Z,24.35
2018-08-09T17:20:31.683Z,24.37
2018-08-09T17:23:02.752Z,24.45
2018-08-09T17:25:32.719Z,24.48
2018-08-09T17:28:02.653Z,24.55
2018-08-09T17:30:32.520Z,24.51
2018-08-09T17:33:02.689Z,24.57
2018-08-09T17:35:32.932Z,24.59
2018-08-09T17:38:03.124Z,24.65
2018-08-09T17:40:34.605Z,24.63
2018-08-09T17:43:04.966Z,24.64
2018-08-09T17:45:36.270Z,24.54
2018-08-09T17:48:06.428Z,24.63
2018-08-09T17:50:35.958Z,24.68
2018-08-09T17:53:07.406Z,24.68
2018-08-09T17:55:37.242Z,24.69
2018-08-09T17:58:07.176Z,24.69
2018-08-09T18:00:37.174Z,24.64
2018-08-09T18:03:06.996Z,24.57
2018-08-09T18:05:36.935Z,24.64
2018-08-09T18:08:06.938Z,24.59
2018-08-09T18:10:37.102Z,24.53
2018-08-09T18:13:07.566Z,24.42
2018-08-09T18:15:37.830Z,24.43
2018-08-09T18:18:07.555Z,24.32
2018-08-09T18:20:40.066Z,24.38
2018-08-09T18:23:10.242Z,24.40
2018-08-09T18:25:39.850Z,24.37
2018-08-09T18:28:10.914Z,24.29
2018-08-09T18:30:40.676Z,24.29
2018-08-09T18:33:10.582Z,24.26
2018-08-09T18:35:40.216Z,24.26
2018-08-09T18:38:10.286Z,24.18
2018-08-09T18:40:39.892Z,24.17
2018-08-09T18:43:09.694Z,24.10
2018-08-09T18:45:39.848Z,23.96
2018-08-09T18:48:09.925Z,23.77
2018-08-09T18:50:40.138Z,23.74
2018-08-09T18:53:10.104Z,23.46
2018-08-09T18:55:39.948Z,23.21
2018-08-09T18:58:10.277Z,23.18
2018-08-09T19:00:40.585Z,23.06
2018-08-09T19:03:12.107Z,23.10
2018-08-09T19:05:41.749Z,23.01
2018-08-09T19:08:11.213Z,23.01
2018-08-09T19:10:40.913Z,22.74
2018-08-09T19:13:10.452Z,22.71
2018-08-09T19:15:40.012Z,22.69
2018-08-09T19:18:09.721Z,22.65
2018-08-09T19:20:39.525Z,22.62
2018-08-09T19:23:09.080Z,22.57
2018-08-09T19:25:39.296Z,22.50
2018-08-09T19:28:08.970Z,22.45
2018-08-09T19:30:38.831Z,22.32
2018-08-09T19:33:08.361Z,22.35
2018-08-09T19:35:38.166Z,22.26
2018-08-09T19:38:08.201Z,22.27
2018-08-09T19:40:40.150Z,22.19
2018-08-09T19:43:10.355Z,22.16
2018-08-09T19:45:41.526Z,22.13
2018-08-09T19:48:11.294Z,22.17
2018-08-09T19:50:41.398Z,22.15
2018-08-09T19:53:11.335Z,22.06
2018-08-09T19:55:41.419Z,22.06
2018-08-09T19:58:18.302Z,21.98
2018-08-09T20:00:51.277Z,22.04
2018-08-09T20:03:25.323Z,22.06
2018-08-09T20:05:58.383Z,22.02
2018-08-09T20:08:32.068Z,21.99
2018-08-09T20:11:05.527Z,22.00
2018-08-09T20:13:38.968Z,22.02
2018-08-09T20:16:12.629Z,22.10
2018-08-09T20:18:45.522Z,22.03
2018-08-09T20:21:19.235Z,22.03
2018-08-09T20:23:49.566Z,22.02
2018-08-09T20:26:22.695Z,21.99
2018-08-09T20:28:55.879Z,21.96
2018-08-09T20:31:28.844Z,21.91
2018-08-09T20:34:02.329Z,21.90
2018-08-09T20:36:35.360Z,21.85
2018-08-09T20:39:13.154Z,21.80
2018-08-09T20:41:46.522Z,21.84
2018-08-09T20:44:19.759Z,21.74
2018-08-09T20:46:53.329Z,21.73
2018-08-09T20:49:26.654Z,21.60
2018-08-09T20:51:56.355Z,21.55
2018-08-09T20:54:27.854Z,21.57
2018-08-09T20:56:59.555Z,21.49
2018-08-09T20:59:31.803Z,21.57
2018-08-09T21:02:04.161Z,21.47
2018-08-09T21:04:34.814Z,21.53
2018-08-09T21:07:06.414Z,21.49
2018-08-09T21:09:37.782Z,21.43
2018-08-09T21:12:07.899Z,21.36
2018-08-09T21:14:40.269Z,21.29
2018-08-09T21:17:12.582Z,21.37
2018-08-09T21:19:44.323Z,21.32
2018-08-09T21:22:16.148Z,21.26
2018-08-09T21:24:48.588Z,21.26
2018-08-09T21:27:20.692Z,21.20
2018-08-09T21:29:53.261Z,21.20
2018-08-09T21:32:27.178Z,21.17
2018-08-09T21:35:00.789Z,20.99
2018-08-09T21:37:33.100Z,20.96
2018-08-09T21:40:07.278Z,21.00
2018-08-09T21:42:40.643Z,20.89
2018-08-09T21:45:17.968Z,20.79
2018-08-09T21:47:51.191Z,20.81
2018-08-09T21:50:23.217Z,20.72
2018-08-09T21:52:56.845Z,20.57
2018-08-09T21:55:30.150Z,20.51
2018-08-09T21:58:00.061Z,20.38
2018-08-09T22:00:55.702Z,20.34
2018-08-09T22:03:32.265Z,20.08
2018-08-09T22:06:07.740Z,19.99
2018-08-09T22:08:42.887Z,19.94
2018-08-09T22:12:16.705Z,19.83
2018-08-09T22:14:51.826Z,19.79
2018-08-09T22:17:26.700Z,19.75
2018-08-09T22:20:02.528Z,19.69
2018-08-09T22:22:32.440Z,19.48
2018-08-09T22:25:02.227Z,19.53
2018-08-09T22:27:31.766Z,19.38
2018-08-09T22:30:01.588Z,19.33
2018-08-09T22:32:31.466Z,19.21
2018-08-09T22:35:01.386Z,19.23
2018-08-09T22:37:30.868Z,19.17
2018-08-09T22:40:00.956Z,19.20
2018-08-09T22:42:30.629Z,19.07
2018-08-09T22:45:00.545Z,19.03
2018-08-09T22:47:30.102Z,19.05
2018-08-09T22:50:00.174Z,19.13
2018-08-09T22:52:29.919Z,18.99
2018-08-09T22:55:00.103Z,18.97
2018-08-09T22:57:29.625Z,19.14
2018-08-09T22:59:59.315Z,19.19
2018-08-09T23:02:28.913Z,19.04
2018-08-09T23:04:58.533Z,18.99
2018-08-09T23:07:28.753Z,18.89
2018-08-09T23:09:58.559Z,18.77
2018-08-09T23:12:28.594Z,18.80
2018-08-09T23:14:59.166Z,18.67
2018-08-09T23:17:28.974Z,18.72
2018-08-09T23:19:58.971Z,18.64
2018-08-09T23:22:28.741Z,18.56
2018-08-09T23:24:58.790Z,18.53
2018-08-09T23:27:28.505Z,18.52
2018-08-09T23:29:58.288Z,18.57
2018-08-09T23:32:28.110Z,18.35
2018-08-09T23:34:57.894Z,18.15
2018-08-09T23:37:27.660Z,18.09
2018-08-09T23:39:58.231Z,18.18
2018-08-09T23:42:28.006Z,18.15
2018-08-09T23:44:58.108Z,18.25
2018-08-09T23:47:28.017Z,18.23
2018-08-09T23:49:57.727Z,18.34
2018-08-09T23:52:27.553Z,18.33
2018-08-09T23:54:57.283Z,18.35
2018-08-09T23:57:27.100Z,18.18
2018-08-09T23:59:56.715Z,18.18
